Eckerty, Indiana
Current Conditions -  °F | °C
As of 9:15 PM on Sunday 25 Jan 2015 (Local Time) from KHNB Reporting Station
Overcast Overcast  
Wind Chill:   Ceiling: 1000
Heat Index:   Visibility: 10mi
Dew Point:   Wind: 6mph
Humidity: 87%   Direction: 320°NW
Pressure: 29.7"   Gusts: NA
Location:  38.32°N, 86.61°W
Report Text: KHNB 260215Z AUTO 32005KT 10SM BKN010 BKN014 OVC020 04/02 A2970 RMK AO1
Loading
Personal Weather Stations






























Interactive Weather Map New forecast layout! Learn more

10-Day Weather Forecast

Advertisements
Track Severe Weather on mobile